createdAt,value
2022-10-21T00:00:08.297Z,37.58
2022-10-21T00:02:16.897Z,38.11
2022-10-21T00:04:20.597Z,39.14
2022-10-21T00:06:24.260Z,40.00
2022-10-21T00:08:28.452Z,40.41
2022-10-21T00:10:32.197Z,41.00
2022-10-21T00:12:36.248Z,42.07
2022-10-21T00:14:40.765Z,42.46
2022-10-21T00:16:47.365Z,43.52
2022-10-21T00:18:51.577Z,44.19
2022-10-21T00:20:55.508Z,46.50
2022-10-21T00:22:59.803Z,46.43
2022-10-21T00:25:03.703Z,46.95
2022-10-21T00:27:07.877Z,47.70
2022-10-21T00:29:12.176Z,48.20
2022-10-21T00:31:17.301Z,48.82
2022-10-21T00:33:21.139Z,50.42
2022-10-21T00:35:24.933Z,50.93
2022-10-21T00:37:30.649Z,51.56
2022-10-21T00:39:34.650Z,51.98
2022-10-21T00:41:38.523Z,52.84
2022-10-21T00:44:02.975Z,54.08
2022-10-21T00:46:08.962Z,55.44
2022-10-21T00:48:26.694Z,55.95
2022-10-21T00:50:37.556Z,57.83
2022-10-21T00:52:44.026Z,58.57
2022-10-21T00:54:48.879Z,59.18
2022-10-21T00:56:53.730Z,62.04
2022-10-21T00:58:59.233Z,63.50
2022-10-21T01:01:04.820Z,61.33
2022-10-21T01:03:08.962Z,61.25
2022-10-21T01:05:13.548Z,60.78
2022-10-21T01:07:17.460Z,61.20
2022-10-21T01:09:21.838Z,61.65
2022-10-21T01:11:26.441Z,60.44
2022-10-21T01:13:50.314Z,62.00
2022-10-21T01:16:00.703Z,61.67
2022-10-21T01:18:10.759Z,63.36
2022-10-21T01:20:25.743Z,64.04
2022-10-21T01:22:34.981Z,65.25
2022-10-21T01:24:49.474Z,65.85
2022-10-21T01:26:58.841Z,65.94
2022-10-21T01:29:13.861Z,66.77
2022-10-21T01:31:29.047Z,66.99
2022-10-21T01:33:33.089Z,68.67
2022-10-21T01:35:36.820Z,69.01
2022-10-21T01:37:59.293Z,70.11
2022-10-21T01:40:07.353Z,70.64
2022-10-21T01:42:19.600Z,70.83
2022-10-21T01:44:26.283Z,71.29
2022-10-21T01:46:35.385Z,71.79
2022-10-21T01:48:44.541Z,71.43
2022-10-21T01:51:00.483Z,72.57
2022-10-21T01:53:11.728Z,73.21
2022-10-21T01:55:19.541Z,73.28
2022-10-21T01:57:25.826Z,73.80
2022-10-21T01:59:32.128Z,74.12
2022-10-21T02:01:36.950Z,74.56
2022-10-21T02:03:42.297Z,74.43
2022-10-21T02:05:45.975Z,74.95
2022-10-21T02:07:50.196Z,75.74
2022-10-21T02:09:54.237Z,75.95
2022-10-21T02:12:00.101Z,76.20
2022-10-21T02:14:09.835Z,76.59
2022-10-21T02:16:17.272Z,77.20
2022-10-21T02:18:22.556Z,77.57
2022-10-21T02:20:28.873Z,77.59
2022-10-21T02:22:34.007Z,77.59
2022-10-21T02:24:47.328Z,77.34
2022-10-21T02:26:51.403Z,78.04
2022-10-21T02:29:00.202Z,78.00
2022-10-21T02:31:28.066Z,77.51
2022-10-21T02:33:51.457Z,77.68
2022-10-21T02:36:06.502Z,79.83
2022-10-21T02:38:22.309Z,78.21
2022-10-21T02:40:31.502Z,78.64
2022-10-21T02:42:39.640Z,78.94
2022-10-21T02:44:43.544Z,78.15
2022-10-21T02:46:48.632Z,77.87
2022-10-21T02:48:52.449Z,77.59
2022-10-21T02:50:56.407Z,77.90
2022-10-21T02:53:00.138Z,78.83
2022-10-21T02:55:03.934Z,78.45
2022-10-21T02:57:07.513Z,78.19
2022-10-21T02:59:11.473Z,78.60
2022-10-21T03:01:14.951Z,78.86
2022-10-21T03:03:18.913Z,78.76
2022-10-21T03:05:22.755Z,78.27
2022-10-21T03:07:27.037Z,78.67
2022-10-21T03:09:30.782Z,79.52
2022-10-21T03:11:34.571Z,79.50
2022-10-21T03:13:38.351Z,79.71
2022-10-21T03:15:42.292Z,79.32
2022-10-21T03:17:46.851Z,79.28
2022-10-21T03:19:50.730Z,80.24
2022-10-21T03:21:55.701Z,80.54
2022-10-21T03:23:59.811Z,80.52
2022-10-21T03:26:03.573Z,80.11
2022-10-21T03:28:07.753Z,80.52
2022-10-21T03:30:11.858Z,80.43
2022-10-21T03:32:15.572Z,80.06
2022-10-21T03:34:19.882Z,78.23
2022-10-21T03:36:23.385Z,77.95
2022-10-21T03:38:27.305Z,77.33
2022-10-21T03:40:31.575Z,75.38
2022-10-21T03:42:35.733Z,75.21
2022-10-21T03:44:39.561Z,75.40
2022-10-21T03:46:43.393Z,75.31
2022-10-21T03:48:47.010Z,75.88
2022-10-21T03:50:50.930Z,76.16
2022-10-21T03:52:55.417Z,76.31
2022-10-21T03:54:59.743Z,76.13
2022-10-21T03:57:03.514Z,75.74
2022-10-21T03:59:07.499Z,76.57
2022-10-21T04:01:14.810Z,77.42
2022-10-21T04:03:19.130Z,78.72
2022-10-21T04:05:23.791Z,76.93
2022-10-21T04:07:28.730Z,76.78
2022-10-21T04:09:32.627Z,78.02
2022-10-21T04:11:36.734Z,78.00
2022-10-21T04:13:41.629Z,78.81
2022-10-21T04:15:46.804Z,79.25
2022-10-21T04:17:51.745Z,79.58
2022-10-21T04:19:56.867Z,79.26
2022-10-21T04:22:00.673Z,79.42
2022-10-21T04:24:04.919Z,79.30
2022-10-21T04:26:09.281Z,79.95
2022-10-21T04:28:12.896Z,80.59
2022-10-21T04:30:17.031Z,81.13
2022-10-21T04:32:20.713Z,81.42
2022-10-21T04:34:24.564Z,82.04
2022-10-21T04:36:29.162Z,82.00
2022-10-21T04:38:33.984Z,82.38
2022-10-21T04:40:40.822Z,82.83
2022-10-21T04:42:48.863Z,82.80
2022-10-21T04:44:53.628Z,83.07
2022-10-21T04:46:57.494Z,82.56
2022-10-21T04:49:01.016Z,82.56
2022-10-21T04:51:05.069Z,82.60
2022-10-21T04:53:09.149Z,82.49
2022-10-21T04:55:13.223Z,81.97
2022-10-21T04:57:17.044Z,82.32
2022-10-21T04:59:21.141Z,83.13
2022-10-21T05:01:24.889Z,83.00
2022-10-21T05:03:30.883Z,84.49
2022-10-21T05:05:34.640Z,84.75
2022-10-21T05:07:39.089Z,85.03
2022-10-21T05:09:42.894Z,85.35
2022-10-21T05:11:46.903Z,85.24
2022-10-21T05:13:50.988Z,85.61
2022-10-21T05:15:55.393Z,85.84
2022-10-21T05:17:59.191Z,86.07
2022-10-21T05:20:03.647Z,86.56
2022-10-21T05:22:07.950Z,86.22
2022-10-21T05:24:12.279Z,87.35
2022-10-21T05:26:16.421Z,88.61
2022-10-21T05:28:21.274Z,87.61
2022-10-21T05:30:25.254Z,86.60
2022-10-21T05:32:28.918Z,85.89
2022-10-21T05:34:33.042Z,85.70
2022-10-21T05:36:36.652Z,85.84
2022-10-21T05:38:40.681Z,86.62
2022-10-21T05:40:44.325Z,87.17
2022-10-21T05:42:47.826Z,87.06
2022-10-21T05:44:51.302Z,87.11
2022-10-21T05:46:55.317Z,87.10
2022-10-21T05:48:58.860Z,87.28
2022-10-21T05:53:22.583Z,86.40
2022-10-21T05:55:26.235Z,86.68
2022-10-21T05:57:30.008Z,87.17
2022-10-21T05:59:33.843Z,87.14
2022-10-21T06:01:37.611Z,87.11
2022-10-21T06:03:41.298Z,87.29
2022-10-21T06:05:44.851Z,88.28
2022-10-21T06:07:49.336Z,87.78
2022-10-21T06:09:54.822Z,88.36
2022-10-21T06:11:59.251Z,88.09
2022-10-21T06:14:03.526Z,87.91
2022-10-21T06:16:07.988Z,88.75
2022-10-21T06:18:12.167Z,88.60
2022-10-21T06:20:16.280Z,89.25
2022-10-21T06:22:20.038Z,89.42
2022-10-21T06:24:23.826Z,89.83
2022-10-21T06:26:27.617Z,90.44
2022-10-21T06:28:32.977Z,90.87
2022-10-21T06:30:37.044Z,91.07
2022-10-21T06:32:40.856Z,91.30
2022-10-21T06:34:44.459Z,92.30
2022-10-21T06:36:48.488Z,93.57
2022-10-21T06:38:52.631Z,93.06
2022-10-21T06:41:09.159Z,93.87
2022-10-21T06:43:17.040Z,94.41
2022-10-21T06:45:21.067Z,95.68
2022-10-21T06:47:24.859Z,97.07
2022-10-21T06:49:28.798Z,98.24
2022-10-21T06:51:32.756Z,99.32
2022-10-21T06:53:39.219Z,99.71
2022-10-21T06:55:43.300Z,99.70
2022-10-21T06:57:47.392Z,100.00
2022-10-21T06:59:51.528Z,100.00
2022-10-21T07:02:00.044Z,100.00
2022-10-21T07:04:05.657Z,100.00
2022-10-21T07:06:09.603Z,100.00
2022-10-21T07:08:13.103Z,100.00
2022-10-21T07:10:16.788Z,100.00
2022-10-21T07:12:20.558Z,100.00
2022-10-21T07:14:24.957Z,100.00
2022-10-21T07:16:29.945Z,100.00
2022-10-21T07:18:37.013Z,100.00
2022-10-21T07:20:43.047Z,100.00
2022-10-21T07:22:46.982Z,100.00
2022-10-21T07:24:50.617Z,100.00
2022-10-21T07:26:54.416Z,100.00
2022-10-21T07:28:59.940Z,100.00
2022-10-21T07:31:05.587Z,100.00
2022-10-21T07:33:09.701Z,100.00
2022-10-21T07:35:13.683Z,100.00
2022-10-21T07:37:17.595Z,100.00
2022-10-21T07:39:25.491Z,100.00
2022-10-21T07:41:32.081Z,100.00
2022-10-21T07:43:35.834Z,100.00
2022-10-21T07:45:43.085Z,100.00
2022-10-21T07:47:46.591Z,100.00
2022-10-21T07:49:50.260Z,100.00
2022-10-21T07:51:54.793Z,100.00
2022-10-21T07:53:59.481Z,100.00
2022-10-21T07:56:10.546Z,100.00
2022-10-21T07:58:15.755Z,100.00
2022-10-21T08:00:20.180Z,100.00
2022-10-21T08:02:25.867Z,100.00
2022-10-21T08:04:33.120Z,100.00
2022-10-21T08:06:37.372Z,100.00
2022-10-21T08:08:41.639Z,100.00
2022-10-21T08:10:45.756Z,100.00
2022-10-21T08:12:49.684Z,100.00
2022-10-21T08:14:53.867Z,100.00
2022-10-21T08:16:57.831Z,100.00
2022-10-21T08:19:02.268Z,100.00
2022-10-21T08:21:06.076Z,100.00
2022-10-21T08:23:09.918Z,100.00
2022-10-21T08:25:17.816Z,100.00
2022-10-21T08:27:21.691Z,100.00
2022-10-21T08:29:25.562Z,100.00
2022-10-21T08:31:29.404Z,100.00
2022-10-21T08:33:33.410Z,100.00
2022-10-21T08:35:37.560Z,100.00
2022-10-21T08:37:41.310Z,100.00
2022-10-21T08:39:45.223Z,100.00
2022-10-21T08:41:52.424Z,100.00
2022-10-21T08:44:16.481Z,100.00
2022-10-21T08:46:22.557Z,100.00
2022-10-21T08:48:34.991Z,100.00
2022-10-21T08:50:41.776Z,100.00
2022-10-21T08:52:48.414Z,100.00
2022-10-21T08:54:55.513Z,100.00
2022-10-21T08:57:01.806Z,100.00
2022-10-21T08:59:11.031Z,100.00
2022-10-21T09:01:33.478Z,100.00
2022-10-21T09:03:49.285Z,100.00
2022-10-21T09:06:16.550Z,100.00
2022-10-21T09:08:24.720Z,100.00
2022-10-21T09:10:28.410Z,100.00
2022-10-21T09:13:01.195Z,100.00
2022-10-21T09:15:08.733Z,100.00
2022-10-21T09:17:26.851Z,100.00
2022-10-21T09:19:32.404Z,100.00
2022-10-21T09:21:41.807Z,100.00
2022-10-21T09:23:55.230Z,100.00
2022-10-21T09:26:02.630Z,100.00
2022-10-21T09:28:16.350Z,100.00
2022-10-21T09:30:23.104Z,100.00
2022-10-21T09:32:43.309Z,100.00
2022-10-21T09:34:55.517Z,100.00
2022-10-21T09:37:00.991Z,100.00
2022-10-21T09:39:07.286Z,100.00
2022-10-21T09:41:15.747Z,100.00
2022-10-21T09:43:22.383Z,100.00
2022-10-21T09:45:45.645Z,100.00
2022-10-21T09:47:53.232Z,100.00
2022-10-21T09:50:07.306Z,100.00
2022-10-21T09:52:13.302Z,100.00
2022-10-21T09:54:19.323Z,100.00
2022-10-21T09:56:32.661Z,100.00
2022-10-21T09:58:39.971Z,100.00
2022-10-21T10:00:44.003Z,100.00
2022-10-21T10:02:48.018Z,100.00
2022-10-21T10:04:51.955Z,100.00
2022-10-21T10:06:55.687Z,100.00
2022-10-21T10:09:08.219Z,100.00
2022-10-21T10:11:12.701Z,100.00
2022-10-21T10:13:20.469Z,100.00
2022-10-21T10:15:28.046Z,100.00
2022-10-21T10:17:36.677Z,100.00
2022-10-21T10:19:40.277Z,100.00
2022-10-21T10:21:44.016Z,100.00
2022-10-21T10:23:49.980Z,100.00
2022-10-21T10:25:53.699Z,100.00
2022-10-21T10:27:57.365Z,100.00
2022-10-21T10:30:01.929Z,100.00
2022-10-21T10:32:11.061Z,100.00
2022-10-21T10:34:38.104Z,100.00
2022-10-21T10:36:42.448Z,100.00
2022-10-21T10:38:55.204Z,100.00
2022-10-21T10:41:12.473Z,100.00
2022-10-21T10:43:15.973Z,100.00
2022-10-21T10:45:23.313Z,100.00
2022-10-21T10:47:31.753Z,100.00
2022-10-21T10:49:38.245Z,100.00
2022-10-21T10:51:43.605Z,100.00
2022-10-21T10:53:47.490Z,100.00
2022-10-21T10:55:56.771Z,100.00
2022-10-21T10:58:12.418Z,100.00
2022-10-21T11:00:22.207Z,100.00
2022-10-21T11:02:35.687Z,100.00
2022-10-21T11:04:41.504Z,100.00
2022-10-21T11:07:06.733Z,100.00
2022-10-21T11:09:10.530Z,100.00
2022-10-21T11:11:26.954Z,100.00
2022-10-21T11:13:30.681Z,100.00
2022-10-21T11:15:57.368Z,100.00
2022-10-21T11:18:24.014Z,100.00
2022-10-21T11:20:33.626Z,100.00
2022-10-21T11:22:43.424Z,100.00
2022-10-21T11:24:52.114Z,100.00
2022-10-21T11:27:28.019Z,100.00
2022-10-21T11:29:58.089Z,100.00
2022-10-21T11:32:27.192Z,100.00
2022-10-21T11:34:31.072Z,100.00
2022-10-21T11:36:48.603Z,100.00
2022-10-21T11:39:24.511Z,100.00
2022-10-21T11:41:28.459Z,100.00
2022-10-21T11:44:05.223Z,100.00
2022-10-21T11:46:17.815Z,100.00
2022-10-21T11:48:39.603Z,100.00
2022-10-21T11:51:07.226Z,100.00
2022-10-21T11:55:43.983Z,100.00
2022-10-21T11:58:02.062Z,100.00
2022-10-21T12:00:14.518Z,100.00
2022-10-21T12:02:22.142Z,100.00
2022-10-21T12:04:36.046Z,100.00
2022-10-21T12:06:47.730Z,100.00
2022-10-21T12:08:55.449Z,100.00
2022-10-21T12:10:59.308Z,100.00
2022-10-21T12:13:19.002Z,100.00
2022-10-21T12:15:26.924Z,100.00
2022-10-21T12:17:31.511Z,100.00
2022-10-21T12:19:36.869Z,100.00
2022-10-21T12:21:41.640Z,100.00
2022-10-21T12:23:46.548Z,100.00
2022-10-21T12:26:14.341Z,100.00
2022-10-21T12:28:26.842Z,100.00
2022-10-21T12:30:42.195Z,100.00
2022-10-21T12:33:13.282Z,100.00
2022-10-21T12:35:17.863Z,100.00
2022-10-21T12:37:56.952Z,100.00
2022-10-21T12:40:14.817Z,100.00
2022-10-21T12:42:24.357Z,100.00
2022-10-21T12:44:29.578Z,100.00
2022-10-21T12:46:47.363Z,100.00
2022-10-21T12:48:51.686Z,100.00
2022-10-21T12:51:03.005Z,100.00
2022-10-21T12:53:20.840Z,100.00
2022-10-21T12:55:25.677Z,100.00
2022-10-21T12:57:31.931Z,100.00
2022-10-21T12:59:36.744Z,100.00
2022-10-21T13:01:47.640Z,100.00
2022-10-21T13:03:53.195Z,100.00
2022-10-21T13:06:03.103Z,100.00
2022-10-21T13:08:28.478Z,100.00
2022-10-21T13:10:32.888Z,100.00
2022-10-21T13:12:36.683Z,100.00
2022-10-21T13:14:46.234Z,100.00
2022-10-21T13:16:49.744Z,100.00
2022-10-21T13:18:53.701Z,100.00
2022-10-21T13:20:59.666Z,100.00
2022-10-21T13:23:22.344Z,100.00
2022-10-21T13:25:32.882Z,100.00
2022-10-21T13:27:36.543Z,100.00
2022-10-21T13:29:40.370Z,100.00
2022-10-21T13:31:44.265Z,100.00
2022-10-21T13:33:53.420Z,100.00
2022-10-21T13:36:05.275Z,100.00
2022-10-21T13:38:24.514Z,100.00
2022-10-21T13:40:31.560Z,100.00
2022-10-21T13:42:38.593Z,100.00
2022-10-21T13:44:47.249Z,100.00
2022-10-21T13:46:51.153Z,100.00
2022-10-21T13:48:55.411Z,100.00
2022-10-21T13:51:13.145Z,100.00
2022-10-21T13:53:17.275Z,100.00
2022-10-21T13:55:22.915Z,100.00
2022-10-21T13:57:29.707Z,100.00
2022-10-21T13:59:35.927Z,100.00
2022-10-21T14:02:00.452Z,100.00
2022-10-21T14:04:15.302Z,100.00
2022-10-21T14:06:39.344Z,100.00
2022-10-21T14:08:44.949Z,99.11
2022-10-21T14:10:50.742Z,97.85
2022-10-21T14:12:54.881Z,97.10
2022-10-21T14:15:03.248Z,96.16
2022-10-21T14:17:11.985Z,95.48
2022-10-21T14:19:21.334Z,95.55
2022-10-21T14:21:26.900Z,93.47
2022-10-21T14:23:31.714Z,92.95
2022-10-21T14:25:36.277Z,92.52
2022-10-21T14:27:40.169Z,91.32
2022-10-21T14:31:54.656Z,90.14
2022-10-21T14:35:01.759Z,87.09
2022-10-21T14:37:11.093Z,86.45
2022-10-21T14:39:22.038Z,86.86
2022-10-21T14:41:35.985Z,85.20
2022-10-21T14:43:41.587Z,86.08
2022-10-21T14:45:47.323Z,84.11
2022-10-21T14:47:57.771Z,82.88
2022-10-21T14:50:01.305Z,83.06
2022-10-21T14:52:09.573Z,81.75
2022-10-21T14:54:36.433Z,80.97
2022-10-21T14:56:42.042Z,78.52
2022-10-21T14:58:47.946Z,79.11
2022-10-21T15:01:14.453Z,77.10
2022-10-21T15:03:36.928Z,76.07
2022-10-21T15:05:43.988Z,74.57
2022-10-21T15:07:50.132Z,74.44
2022-10-21T15:10:00.958Z,72.63
2022-10-21T15:12:19.071Z,71.83
2022-10-21T15:14:29.613Z,72.21
2022-10-21T15:18:48.694Z,71.19
2022-10-21T15:20:58.391Z,69.51
2022-10-21T15:23:02.144Z,68.41
2022-10-21T15:25:10.358Z,68.58
2022-10-21T15:27:36.736Z,66.88
2022-10-21T15:29:44.692Z,66.68
2022-10-21T15:31:48.970Z,65.73
2022-10-21T15:33:53.845Z,64.99
2022-10-21T15:36:04.727Z,64.17
2022-10-21T15:38:08.608Z,62.57
2022-10-21T15:40:13.153Z,61.63
2022-10-21T15:42:23.950Z,61.37
2022-10-21T15:44:31.976Z,58.85
2022-10-21T15:46:42.277Z,58.14
2022-10-21T15:48:45.920Z,56.57
2022-10-21T15:50:49.806Z,55.99
2022-10-21T15:52:53.446Z,55.75
2022-10-21T15:54:57.374Z,55.53
2022-10-21T15:57:02.086Z,55.82
2022-10-21T15:59:06.042Z,52.77
2022-10-21T16:01:16.650Z,53.04
2022-10-21T16:03:20.195Z,52.38
2022-10-21T16:05:23.775Z,50.85
2022-10-21T16:07:35.227Z,51.21
2022-10-21T16:09:38.832Z,50.52
2022-10-21T16:11:54.836Z,48.74
2022-10-21T16:14:02.405Z,47.01
2022-10-21T16:16:09.685Z,46.75
2022-10-21T16:18:14.795Z,46.55
2022-10-21T16:20:20.161Z,43.50
2022-10-21T16:22:24.205Z,43.79
2022-10-21T16:24:27.703Z,42.44
2022-10-21T16:26:31.774Z,43.00
2022-10-21T16:28:35.306Z,43.29
2022-10-21T16:30:40.246Z,42.24
2022-10-21T16:32:44.237Z,42.83
2022-10-21T16:34:48.214Z,42.57
2022-10-21T16:36:52.242Z,41.04
2022-10-21T16:38:56.233Z,41.22
2022-10-21T16:40:59.891Z,40.52
2022-10-21T16:43:03.706Z,39.82
2022-10-21T16:45:08.087Z,38.70
2022-10-21T16:47:12.653Z,39.02
2022-10-21T16:49:17.271Z,40.10
2022-10-21T16:51:21.428Z,39.54
2022-10-21T16:53:29.990Z,37.41
2022-10-21T16:55:33.410Z,37.29
2022-10-21T16:57:37.477Z,38.30
2022-10-21T16:59:41.461Z,36.74
2022-10-21T17:01:45.204Z,37.75
2022-10-21T17:03:48.738Z,36.17
2022-10-21T17:05:53.541Z,36.57
2022-10-21T17:07:59.476Z,34.46
2022-10-21T17:10:03.678Z,34.22
2022-10-21T17:12:08.424Z,34.61
2022-10-21T17:14:21.525Z,33.92
2022-10-21T17:16:25.445Z,33.43
2022-10-21T17:18:29.187Z,33.42
2022-10-21T17:20:33.727Z,33.28
2022-10-21T17:22:37.189Z,32.47
2022-10-21T17:24:40.561Z,31.54
2022-10-21T17:26:44.049Z,31.20
2022-10-21T17:28:48.213Z,31.64
2022-10-21T17:30:53.840Z,31.13
2022-10-21T17:32:57.655Z,31.27
2022-10-21T17:35:01.040Z,30.78
2022-10-21T17:37:05.010Z,31.72
2022-10-21T17:39:08.535Z,30.25
2022-10-21T17:41:12.948Z,30.00
2022-10-21T17:43:16.725Z,29.78
2022-10-21T17:45:21.255Z,29.73
2022-10-21T17:47:24.727Z,30.29
2022-10-21T17:49:28.545Z,29.24
2022-10-21T17:51:32.227Z,28.83
2022-10-21T17:53:35.924Z,28.96
2022-10-21T17:55:39.733Z,29.03
2022-10-21T17:57:43.444Z,28.96
2022-10-21T17:59:51.229Z,28.37
2022-10-21T18:01:57.006Z,29.39
2022-10-21T18:04:03.260Z,28.81
2022-10-21T18:06:07.935Z,28.84
2022-10-21T18:08:11.403Z,28.71
2022-10-21T18:10:14.681Z,28.15
2022-10-21T18:12:18.461Z,28.61
2022-10-21T18:14:22.121Z,27.80
2022-10-21T18:16:26.102Z,27.67
2022-10-21T18:18:34.930Z,27.17
2022-10-21T18:20:38.987Z,27.78
2022-10-21T18:22:42.688Z,27.04
2022-10-21T18:24:46.820Z,27.17
2022-10-21T18:26:50.326Z,27.02
2022-10-21T18:28:55.600Z,27.18
2022-10-21T18:30:59.730Z,27.09
2022-10-21T18:33:03.822Z,26.74
2022-10-21T18:35:07.555Z,26.03
2022-10-21T18:37:11.105Z,26.10
2022-10-21T18:39:14.630Z,25.55
2022-10-21T18:41:20.526Z,25.50
2022-10-21T18:43:24.447Z,24.98
2022-10-21T18:45:27.940Z,25.71
2022-10-21T18:47:31.213Z,24.72
2022-10-21T18:49:35.703Z,24.93
2022-10-21T18:51:39.599Z,25.46
2022-10-21T18:53:47.189Z,25.77
2022-10-21T18:55:53.387Z,25.64
2022-10-21T18:57:57.383Z,24.43
2022-10-21T19:00:01.695Z,25.95
2022-10-21T19:02:10.582Z,25.58
2022-10-21T19:04:16.751Z,24.86
2022-10-21T19:06:41.963Z,24.82
2022-10-21T19:08:46.512Z,24.34
2022-10-21T19:10:51.163Z,24.46
2022-10-21T19:12:56.308Z,24.12
2022-10-21T19:15:00.830Z,24.79
2022-10-21T19:17:05.272Z,23.93
2022-10-21T19:19:09.866Z,25.43
2022-10-21T19:21:14.213Z,25.95
2022-10-21T19:23:18.177Z,25.79
2022-10-21T19:25:22.570Z,25.54
2022-10-21T19:27:26.202Z,25.58
2022-10-21T19:29:30.929Z,25.52
2022-10-21T19:31:37.619Z,24.95
2022-10-21T19:33:43.114Z,24.79
2022-10-21T19:35:48.122Z,25.08
2022-10-21T19:37:54.347Z,25.33
2022-10-21T19:40:00.899Z,25.47
2022-10-21T19:42:04.793Z,24.61
2022-10-21T19:44:09.621Z,24.49
2022-10-21T19:46:21.187Z,24.42
2022-10-21T19:48:28.123Z,24.51
2022-10-21T19:50:32.326Z,24.44
2022-10-21T19:52:36.296Z,24.38
2022-10-21T19:54:41.124Z,24.28
2022-10-21T19:56:45.118Z,24.28
2022-10-21T19:58:49.458Z,24.67
2022-10-21T20:01:02.446Z,23.95
2022-10-21T20:03:06.609Z,24.21
2022-10-21T20:05:11.128Z,24.00
2022-10-21T20:07:15.091Z,24.48
2022-10-21T20:09:19.075Z,24.07
2022-10-21T20:11:23.509Z,24.38
2022-10-21T20:13:27.312Z,24.26
2022-10-21T20:15:31.321Z,23.94
2022-10-21T20:17:35.166Z,24.03
2022-10-21T20:19:39.393Z,24.02
2022-10-21T20:21:44.246Z,24.21
2022-10-21T20:23:48.298Z,24.01
2022-10-21T20:25:55.589Z,23.95
2022-10-21T20:27:59.679Z,24.20
2022-10-21T20:30:03.541Z,23.67
2022-10-21T20:32:07.704Z,23.62
2022-10-21T20:34:14.629Z,25.81
2022-10-21T20:36:22.001Z,24.08
2022-10-21T20:38:26.278Z,23.79
2022-10-21T20:40:30.296Z,23.98
2022-10-21T20:42:34.985Z,23.55
2022-10-21T20:44:39.042Z,23.59
2022-10-21T20:46:43.348Z,23.98
2022-10-21T20:48:49.496Z,24.18
2022-10-21T20:51:06.752Z,24.29
2022-10-21T20:53:10.973Z,24.20
2022-10-21T20:55:14.830Z,25.55
2022-10-21T20:57:18.757Z,24.12
2022-10-21T20:59:22.724Z,24.65
2022-10-21T21:01:33.054Z,24.99
2022-10-21T21:03:38.965Z,24.29
2022-10-21T21:05:43.249Z,24.20
2022-10-21T21:07:47.165Z,24.12
2022-10-21T21:10:02.184Z,24.24
2022-10-21T21:12:07.739Z,24.10
2022-10-21T21:14:14.774Z,24.87
2022-10-21T21:16:24.059Z,24.13
2022-10-21T21:18:28.130Z,24.24
2022-10-21T21:20:32.969Z,24.94
2022-10-21T21:22:38.840Z,25.34
2022-10-21T21:24:43.536Z,24.52
2022-10-21T21:26:47.698Z,24.52
2022-10-21T21:28:52.024Z,23.76
2022-10-21T21:30:56.162Z,23.61
2022-10-21T21:33:00.199Z,23.83
2022-10-21T21:35:06.096Z,23.50
2022-10-21T21:37:13.260Z,22.95
2022-10-21T21:39:17.154Z,23.04
2022-10-21T21:41:23.039Z,23.54
2022-10-21T21:43:28.850Z,23.13
2022-10-21T21:45:32.923Z,22.40
2022-10-21T21:47:36.830Z,22.61
2022-10-21T21:49:41.373Z,22.30
2022-10-21T21:51:45.492Z,22.56
2022-10-21T21:53:51.770Z,23.21
2022-10-21T21:55:59.770Z,23.21
2022-10-21T21:58:09.944Z,22.84
2022-10-21T22:00:14.318Z,22.37
2022-10-21T22:02:18.522Z,22.78
2022-10-21T22:04:22.285Z,22.58
2022-10-21T22:06:29.498Z,23.14
2022-10-21T22:08:34.568Z,22.50
2022-10-21T22:10:38.995Z,22.72
2022-10-21T22:12:44.713Z,22.59
2022-10-21T22:14:48.562Z,22.22
2022-10-21T22:16:52.907Z,22.37
2022-10-21T22:18:57.616Z,22.53
2022-10-21T22:21:03.317Z,22.86
2022-10-21T22:23:07.672Z,22.64
2022-10-21T22:25:14.827Z,22.39
2022-10-21T22:27:19.421Z,22.05
2022-10-21T22:29:23.866Z,21.91
2022-10-21T22:31:30.546Z,21.83
2022-10-21T22:33:36.305Z,21.80
2022-10-21T22:35:40.662Z,21.72
2022-10-21T22:37:45.233Z,21.89
2022-10-21T22:39:49.748Z,21.55
2022-10-21T22:41:53.649Z,21.87
2022-10-21T22:43:57.635Z,21.68
2022-10-21T22:46:15.350Z,21.87
2022-10-21T22:48:25.761Z,22.11
2022-10-21T22:50:30.030Z,22.53
2022-10-21T22:52:34.260Z,23.07
2022-10-21T22:54:49.384Z,23.87
2022-10-21T22:56:57.366Z,24.49
2022-10-21T22:59:01.591Z,24.30
2022-10-21T23:01:11.045Z,24.74
2022-10-21T23:03:15.616Z,24.95
2022-10-21T23:05:20.464Z,25.18
2022-10-21T23:07:24.601Z,25.49
2022-10-21T23:09:28.724Z,25.57
2022-10-21T23:11:33.467Z,25.73
2022-10-21T23:13:47.372Z,25.75
2022-10-21T23:16:00.438Z,26.10
2022-10-21T23:18:04.957Z,26.26
2022-10-21T23:20:09.472Z,26.15
2022-10-21T23:22:13.558Z,26.23
2022-10-21T23:24:17.866Z,26.49
2022-10-21T23:26:22.159Z,27.31
2022-10-21T23:28:26.191Z,26.64
2022-10-21T23:30:30.582Z,26.95
2022-10-21T23:32:34.692Z,26.79
2022-10-21T23:34:39.139Z,28.01
2022-10-21T23:36:42.985Z,27.42
2022-10-21T23:38:47.213Z,27.15
2022-10-21T23:40:51.716Z,27.32
2022-10-21T23:42:56.265Z,27.69
2022-10-21T23:45:01.191Z,28.13
2022-10-21T23:47:08.331Z,28.21
2022-10-21T23:49:12.969Z,28.22
2022-10-21T23:51:17.068Z,28.20
2022-10-21T23:53:21.018Z,28.43
2022-10-21T23:55:25.053Z,28.56
2022-10-21T23:57:28.982Z,28.96
2022-10-21T23:59:32.849Z,29.20
